sensor_id;sensor_type;location;lat;lon;timestamp;pressure;altitude;pressure_sealevel;temperature;humidity
47913;BME280;33676;51.006;17.180;2023-01-23T00:01:40;101832.06;;;2.79;100.00
47913;BME280;33676;51.006;17.180;2023-01-23T00:04:12;101833.27;;;2.79;100.00
47913;BME280;33676;51.006;17.180;2023-01-23T00:06:42;101834.13;;;2.79;100.00
47913;BME280;33676;51.006;17.180;2023-01-23T00:09:10;101831.89;;;2.79;100.00
47913;BME280;33676;51.006;17.180;2023-01-23T00:11:38;101831.00;;;2.80;100.00
47913;BME280;33676;51.006;17.180;2023-01-23T00:14:09;101830.67;;;2.79;100.00
47913;BME280;33676;51.006;17.180;2023-01-23T00:16:37;101829.83;;;2.78;100.00
47913;BME280;33676;51.006;17.180;2023-01-23T00:19:06;101826.03;;;2.78;100.00
47913;BME280;33676;51.006;17.180;2023-01-23T00:21:34;101821.73;;;2.77;100.00
47913;BME280;33676;51.006;17.180;2023-01-23T00:24:03;101812.78;;;2.76;100.00
47913;BME280;33676;51.006;17.180;2023-01-23T00:26:31;101811.94;;;2.75;100.00
47913;BME280;33676;51.006;17.180;2023-01-23T00:29:02;101815.94;;;2.74;100.00
47913;BME280;33676;51.006;17.180;2023-01-23T00:31:35;101823.70;;;2.74;100.00
47913;BME280;33676;51.006;17.180;2023-01-23T00:34:10;101831.66;;;2.73;100.00
47913;BME280;33676;51.006;17.180;2023-01-23T00:36:42;101842.55;;;2.72;100.00
47913;BME280;33676;51.006;17.180;2023-01-23T00:39:18;101851.52;;;2.73;100.00
47913;BME280;33676;51.006;17.180;2023-01-23T00:41:48;101854.96;;;2.74;100.00
47913;BME280;33676;51.006;17.180;2023-01-23T00:44:17;101854.79;;;2.73;100.00
47913;BME280;33676;51.006;17.180;2023-01-23T00:46:45;101859.82;;;2.72;100.00
47913;BME280;33676;51.006;17.180;2023-01-23T00:49:14;101863.77;;;2.73;100.00
47913;BME280;33676;51.006;17.180;2023-01-23T00:51:45;101871.70;;;2.74;100.00
47913;BME280;33676;51.006;17.180;2023-01-23T00:54:13;101873.24;;;2.75;100.00
47913;BME280;33676;51.006;17.180;2023-01-23T00:56:42;101874.42;;;2.76;100.00
47913;BME280;33676;51.006;17.180;2023-01-23T00:59:10;101877.86;;;2.77;100.00
47913;BME280;33676;51.006;17.180;2023-01-23T01:01:39;101872.83;;;2.78;100.00
47913;BME280;33676;51.006;17.180;2023-01-23T01:04:08;101867.80;;;2.79;100.00
47913;BME280;33676;51.006;17.180;2023-01-23T01:06:36;101865.55;;;2.79;100.00
47913;BME280;33676;51.006;17.180;2023-01-23T01:09:05;101866.11;;;2.77;100.00
47913;BME280;33676;51.006;17.180;2023-01-23T01:11:33;101870.61;;;2.77;100.00
47913;BME280;33676;51.006;17.180;2023-01-23T01:14:02;101872.34;;;2.77;100.00
47913;BME280;33676;51.006;17.180;2023-01-23T01:16:31;101875.30;;;2.76;100.00
47913;BME280;33676;51.006;17.180;2023-01-23T01:19:00;101878.92;;;2.75;100.00
47913;BME280;33676;51.006;17.180;2023-01-23T01:21:28;101881.89;;;2.74;100.00
47913;BME280;33676;51.006;17.180;2023-01-23T01:23:57;101882.92;;;2.75;100.00
47913;BME280;33676;51.006;17.180;2023-01-23T01:26:25;101876.14;;;2.76;100.00
47913;BME280;33676;51.006;17.180;2023-01-23T01:28:54;101873.55;;;2.77;100.00
47913;BME280;33676;51.006;17.180;2023-01-23T01:31:22;101873.20;;;2.77;100.00
47913;BME280;33676;51.006;17.180;2023-01-23T01:33:51;101876.29;;;2.78;100.00
47913;BME280;33676;51.006;17.180;2023-01-23T01:36:22;101874.73;;;2.77;100.00
47913;BME280;33676;51.006;17.180;2023-01-23T01:38:51;101876.63;;;2.78;100.00
47913;BME280;33676;51.006;17.180;2023-01-23T01:41:19;101877.83;;;2.79;100.00
47913;BME280;33676;51.006;17.180;2023-01-23T01:43:48;101888.19;;;2.78;100.00
47913;BME280;33676;51.006;17.180;2023-01-23T01:49:26;101895.75;;;2.81;100.00
47913;BME280;33676;51.006;17.180;2023-01-23T01:52:09;101903.17;;;2.80;100.00
47913;BME280;33676;51.006;17.180;2023-01-23T01:54:49;101910.45;;;2.79;100.00
47913;BME280;33676;51.006;17.180;2023-01-23T01:59:59;101916.84;;;2.79;100.00
47913;BME280;33676;51.006;17.180;2023-01-23T02:02:38;101922.37;;;2.79;100.00
47913;BME280;33676;51.006;17.180;2023-01-23T02:05:12;101922.36;;;2.80;100.00
47913;BME280;33676;51.006;17.180;2023-01-23T02:08:22;101926.66;;;2.80;100.00
47913;BME280;33676;51.006;17.180;2023-01-23T02:10:52;101928.77;;;2.79;100.00
47913;BME280;33676;51.006;17.180;2023-01-23T02:13:31;101930.67;;;2.78;100.00
47913;BME280;33676;51.006;17.180;2023-01-23T02:16:09;101937.06;;;2.78;100.00
47913;BME280;33676;51.006;17.180;2023-01-23T02:18:41;101940.88;;;2.78;100.00
47913;BME280;33676;51.006;17.180;2023-01-23T02:21:13;101940.72;;;2.77;100.00
47913;BME280;33676;51.006;17.180;2023-01-23T02:24:21;101942.10;;;2.77;100.00
47913;BME280;33676;51.006;17.180;2023-01-23T02:26:53;101936.73;;;2.77;100.00
47913;BME280;33676;51.006;17.180;2023-01-23T02:29:21;101941.92;;;2.77;100.00
47913;BME280;33676;51.006;17.180;2023-01-23T02:31:50;101942.27;;;2.76;100.00
47913;BME280;33676;51.006;17.180;2023-01-23T02:34:20;101950.75;;;2.76;100.00
47913;BME280;33676;51.006;17.180;2023-01-23T02:36:49;101951.27;;;2.75;100.00
47913;BME280;33676;51.006;17.180;2023-01-23T02:39:19;101954.91;;;2.75;100.00
47913;BME280;33676;51.006;17.180;2023-01-23T02:41:50;101956.63;;;2.76;100.00
47913;BME280;33676;51.006;17.180;2023-01-23T02:44:26;101952.30;;;2.75;100.00
47913;BME280;33676;51.006;17.180;2023-01-23T02:47:00;101950.43;;;2.74;100.00
47913;BME280;33676;51.006;17.180;2023-01-23T02:49:30;101953.20;;;2.74;100.00
47913;BME280;33676;51.006;17.180;2023-01-23T02:51:58;101953.91;;;2.73;100.00
47913;BME280;33676;51.006;17.180;2023-01-23T02:54:27;101954.42;;;2.74;100.00
47913;BME280;33676;51.006;17.180;2023-01-23T02:56:55;101956.33;;;2.73;100.00
47913;BME280;33676;51.006;17.180;2023-01-23T02:59:24;101956.17;;;2.72;100.00
47913;BME280;33676;51.006;17.180;2023-01-23T03:02:11;101959.63;;;2.72;100.00
47913;BME280;33676;51.006;17.180;2023-01-23T03:04:40;101952.89;;;2.72;100.00
47913;BME280;33676;51.006;17.180;2023-01-23T03:07:09;101958.40;;;2.73;100.00
47913;BME280;33676;51.006;17.180;2023-01-23T03:09:37;101958.73;;;2.74;100.00
47913;BME280;33676;51.006;17.180;2023-01-23T03:12:06;101964.40;;;2.75;100.00
47913;BME280;33676;51.006;17.180;2023-01-23T03:14:36;101965.95;;;2.75;100.00
47913;BME280;33676;51.006;17.180;2023-01-23T03:17:04;101965.27;;;2.75;100.00
47913;BME280;33676;51.006;17.180;2023-01-23T03:19:32;101969.58;;;2.75;100.00
47913;BME280;33676;51.006;17.180;2023-01-23T03:22:01;101964.92;;;2.75;100.00
47913;BME280;33676;51.006;17.180;2023-01-23T03:24:29;101967.16;;;2.75;100.00
47913;BME280;33676;51.006;17.180;2023-01-23T03:26:58;101973.72;;;2.76;100.00
47913;BME280;33676;51.006;17.180;2023-01-23T03:29:26;101971.81;;;2.76;100.00
47913;BME280;33676;51.006;17.180;2023-01-23T03:32:14;101963.86;;;2.76;100.00
47913;BME280;33676;51.006;17.180;2023-01-23T03:34:43;101966.27;;;2.77;100.00
47913;BME280;33676;51.006;17.180;2023-01-23T03:37:12;101964.55;;;2.77;100.00
47913;BME280;33676;51.006;17.180;2023-01-23T03:39:42;101969.23;;;2.75;100.00
47913;BME280;33676;51.006;17.180;2023-01-23T03:42:32;101973.60;;;2.73;100.00
47913;BME280;33676;51.006;17.180;2023-01-23T03:45:01;101977.21;;;2.73;100.00
47913;BME280;33676;51.006;17.180;2023-01-23T03:47:30;101976.88;;;2.73;100.00
47913;BME280;33676;51.006;17.180;2023-01-23T03:49:58;101982.05;;;2.73;100.00
47913;BME280;33676;51.006;17.180;2023-01-23T03:52:27;101987.04;;;2.74;100.00
47913;BME280;33676;51.006;17.180;2023-01-23T03:54:55;101986.34;;;2.74;100.00
47913;BME280;33676;51.006;17.180;2023-01-23T03:57:23;101984.43;;;2.75;100.00
47913;BME280;33676;51.006;17.180;2023-01-23T03:59:52;101984.93;;;2.76;100.00
47913;BME280;33676;51.006;17.180;2023-01-23T04:02:20;101981.81;;;2.77;100.00
47913;BME280;33676;51.006;17.180;2023-01-23T04:04:48;101984.57;;;2.77;100.00
47913;BME280;33676;51.006;17.180;2023-01-23T04:07:17;101983.70;;;2.78;100.00
47913;BME280;33676;51.006;17.180;2023-01-23T04:09:45;101983.52;;;2.77;100.00
47913;BME280;33676;51.006;17.180;2023-01-23T04:12:14;101981.64;;;2.77;100.00
47913;BME280;33676;51.006;17.180;2023-01-23T04:14:42;101984.59;;;2.76;100.00
47913;BME280;33676;51.006;17.180;2023-01-23T04:17:10;101993.21;;;2.76;100.00
47913;BME280;33676;51.006;17.180;2023-01-23T04:19:39;101988.38;;;2.77;100.00
47913;BME280;33676;51.006;17.180;2023-01-23T04:22:07;101988.54;;;2.77;100.00
47913;BME280;33676;51.006;17.180;2023-01-23T04:24:37;101985.95;;;2.77;100.00
47913;BME280;33676;51.006;17.180;2023-01-23T04:27:05;101986.48;;;2.77;100.00
47913;BME280;33676;51.006;17.180;2023-01-23T04:29:33;101981.10;;;2.78;100.00
47913;BME280;33676;51.006;17.180;2023-01-23T04:32:02;101979.54;;;2.78;100.00
47913;BME280;33676;51.006;17.180;2023-01-23T04:34:31;101981.77;;;2.79;100.00
47913;BME280;33676;51.006;17.180;2023-01-23T04:37:00;101984.69;;;2.80;100.00
47913;BME280;33676;51.006;17.180;2023-01-23T04:39:30;101979.51;;;2.80;100.00
47913;BME280;33676;51.006;17.180;2023-01-23T04:41:59;101979.50;;;2.81;100.00
47913;BME280;33676;51.006;17.180;2023-01-23T04:44:27;101976.40;;;2.80;100.00
47913;BME280;33676;51.006;17.180;2023-01-23T04:46:55;101978.47;;;2.80;100.00
47913;BME280;33676;51.006;17.180;2023-01-23T04:49:24;101986.23;;;2.80;100.00
47913;BME280;33676;51.006;17.180;2023-01-23T04:51:53;101990.91;;;2.80;100.00
47913;BME280;33676;51.006;17.180;2023-01-23T04:54:22;101992.79;;;2.81;100.00
47913;BME280;33676;51.006;17.180;2023-01-23T04:56:50;101993.14;;;2.81;100.00
47913;BME280;33676;51.006;17.180;2023-01-23T04:59:19;101995.23;;;2.80;100.00
47913;BME280;33676;51.006;17.180;2023-01-23T05:01:48;101999.36;;;2.80;100.00
47913;BME280;33676;51.006;17.180;2023-01-23T05:04:17;102004.39;;;2.79;100.00
47913;BME280;33676;51.006;17.180;2023-01-23T05:06:45;102008.37;;;2.79;100.00
47913;BME280;33676;51.006;17.180;2023-01-23T05:09:13;102019.75;;;2.79;100.00
47913;BME280;33676;51.006;17.180;2023-01-23T05:11:42;102020.61;;;2.80;100.00
47913;BME280;33676;51.006;17.180;2023-01-23T05:14:10;102017.52;;;2.79;100.00
47913;BME280;33676;51.006;17.180;2023-01-23T05:16:39;102021.13;;;2.80;100.00
47913;BME280;33676;51.006;17.180;2023-01-23T05:19:07;102022.70;;;2.79;100.00
47913;BME280;33676;51.006;17.180;2023-01-23T05:21:35;102026.52;;;2.77;100.00
47913;BME280;33676;51.006;17.180;2023-01-23T05:24:04;102031.89;;;2.77;100.00
47913;BME280;33676;51.006;17.180;2023-01-23T05:26:33;102034.98;;;2.78;100.00
47913;BME280;33676;51.006;17.180;2023-01-23T05:29:02;102038.80;;;2.76;100.00
47913;BME280;33676;51.006;17.180;2023-01-23T05:31:30;102040.70;;;2.76;100.00
47913;BME280;33676;51.006;17.180;2023-01-23T05:33:59;102048.16;;;2.74;100.00
47913;BME280;33676;51.006;17.180;2023-01-23T05:36:27;102046.79;;;2.73;100.00
47913;BME280;33676;51.006;17.180;2023-01-23T05:38:56;102045.10;;;2.72;100.00
47913;BME280;33676;51.006;17.180;2023-01-23T05:41:24;102050.27;;;2.72;100.00
47913;BME280;33676;51.006;17.180;2023-01-23T05:43:53;102049.23;;;2.73;100.00
47913;BME280;33676;51.006;17.180;2023-01-23T05:46:21;102048.85;;;2.74;100.00
47913;BME280;33676;51.006;17.180;2023-01-23T05:48:51;102051.98;;;2.74;100.00
47913;BME280;33676;51.006;17.180;2023-01-23T05:51:19;102058.20;;;2.73;100.00
47913;BME280;33676;51.006;17.180;2023-01-23T05:53:48;102059.58;;;2.73;100.00
47913;BME280;33676;51.006;17.180;2023-01-23T05:56:16;102057.85;;;2.74;100.00
47913;BME280;33676;51.006;17.180;2023-01-23T05:58:46;102057.30;;;2.75;100.00
47913;BME280;33676;51.006;17.180;2023-01-23T06:01:14;102058.69;;;2.74;100.00
47913;BME280;33676;51.006;17.180;2023-01-23T06:03:42;102062.33;;;2.74;100.00
47913;BME280;33676;51.006;17.180;2023-01-23T06:06:11;102062.69;;;2.73;100.00
47913;BME280;33676;51.006;17.180;2023-01-23T06:08:40;102068.92;;;2.72;100.00
47913;BME280;33676;51.006;17.180;2023-01-23T06:11:08;102074.45;;;2.71;100.00
47913;BME280;33676;51.006;17.180;2023-01-23T06:13:37;102078.27;;;2.71;100.00
47913;BME280;33676;51.006;17.180;2023-01-23T06:16:06;102080.34;;;2.70;100.00
47913;BME280;33676;51.006;17.180;2023-01-23T06:18:37;102085.35;;;2.70;100.00
47913;BME280;33676;51.006;17.180;2023-01-23T06:21:06;102091.04;;;2.71;100.00
47913;BME280;33676;51.006;17.180;2023-01-23T06:23:34;102093.29;;;2.71;100.00
47913;BME280;33676;51.006;17.180;2023-01-23T06:26:03;102097.06;;;2.72;100.00
47913;BME280;33676;51.006;17.180;2023-01-23T06:28:31;102101.40;;;2.71;100.00
47913;BME280;33676;51.006;17.180;2023-01-23T06:31:01;102106.91;;;2.72;100.00
47913;BME280;33676;51.006;17.180;2023-01-23T06:33:31;102108.29;;;2.72;100.00
47913;BME280;33676;51.006;17.180;2023-01-23T06:36:01;102117.96;;;2.72;100.00
47913;BME280;33676;51.006;17.180;2023-01-23T06:38:30;102122.46;;;2.71;100.00
47913;BME280;33676;51.006;17.180;2023-01-23T06:40:59;102129.20;;;2.71;100.00
47913;BME280;33676;51.006;17.180;2023-01-23T06:43:28;102128.34;;;2.70;100.00
47913;BME280;33676;51.006;17.180;2023-01-23T06:45:56;102129.88;;;2.72;100.00
47913;BME280;33676;51.006;17.180;2023-01-23T06:48:25;102133.48;;;2.73;100.00
47913;BME280;33676;51.006;17.180;2023-01-23T06:50:53;102136.59;;;2.73;100.00
47913;BME280;33676;51.006;17.180;2023-01-23T06:53:25;102146.23;;;2.74;100.00
47913;BME280;33676;51.006;17.180;2023-01-23T06:56:03;102149.70;;;2.75;100.00
47913;BME280;33676;51.006;17.180;2023-01-23T06:58:34;102150.71;;;2.75;100.00
47913;BME280;33676;51.006;17.180;2023-01-23T07:01:14;102152.41;;;2.77;100.00
47913;BME280;33676;51.006;17.180;2023-01-23T07:03:45;102152.92;;;2.77;100.00
47913;BME280;33676;51.006;17.180;2023-01-23T07:06:16;102154.28;;;2.79;100.00
47913;BME280;33676;51.006;17.180;2023-01-23T07:08:47;102155.52;;;2.78;100.00
47913;BME280;33676;51.006;17.180;2023-01-23T07:11:18;102158.09;;;2.78;100.00
47913;BME280;33676;51.006;17.180;2023-01-23T07:13:49;102159.28;;;2.80;100.00
47913;BME280;33676;51.006;17.180;2023-01-23T07:16:19;102163.40;;;2.82;100.00
47913;BME280;33676;51.006;17.180;2023-01-23T07:18:50;102163.39;;;2.82;100.00
47913;BME280;33676;51.006;17.180;2023-01-23T07:21:19;102165.27;;;2.83;100.00
47913;BME280;33676;51.006;17.180;2023-01-23T07:23:50;102166.13;;;2.83;100.00
47913;BME280;33676;51.006;17.180;2023-01-23T07:26:20;102167.87;;;2.83;100.00
47913;BME280;33676;51.006;17.180;2023-01-23T07:28:51;102174.94;;;2.83;100.00
47913;BME280;33676;51.006;17.180;2023-01-23T07:31:22;102179.92;;;2.85;100.00
47913;BME280;33676;51.006;17.180;2023-01-23T07:33:53;102181.46;;;2.86;100.00
47913;BME280;33676;51.006;17.180;2023-01-23T07:36:21;102180.41;;;2.87;100.00
47913;BME280;33676;51.006;17.180;2023-01-23T07:38:50;102185.77;;;2.88;100.00
47913;BME280;33676;51.006;17.180;2023-01-23T07:41:20;102185.23;;;2.89;100.00
47913;BME280;33676;51.006;17.180;2023-01-23T07:43:48;102184.52;;;2.89;100.00
47913;BME280;33676;51.006;17.180;2023-01-23T07:46:17;102182.09;;;2.89;100.00
47913;BME280;33676;51.006;17.180;2023-01-23T07:48:46;102185.54;;;2.90;100.00
47913;BME280;33676;51.006;17.180;2023-01-23T07:51:15;102186.55;;;2.92;100.00
47913;BME280;33676;51.006;17.180;2023-01-23T07:53:45;102184.48;;;2.92;100.00
47913;BME280;33676;51.006;17.180;2023-01-23T07:56:14;102185.50;;;2.93;100.00
47913;BME280;33676;51.006;17.180;2023-01-23T07:58:43;102190.15;;;2.94;100.00
47913;BME280;33676;51.006;17.180;2023-01-23T08:01:11;102188.58;;;2.95;100.00
47913;BME280;33676;51.006;17.180;2023-01-23T08:03:40;102191.33;;;2.96;100.00
47913;BME280;33676;51.006;17.180;2023-01-23T08:06:10;102192.51;;;2.98;100.00
47913;BME280;33676;51.006;17.180;2023-01-23T08:08:40;102192.48;;;3.00;100.00
47913;BME280;33676;51.006;17.180;2023-01-23T08:11:09;102193.65;;;3.02;100.00
47913;BME280;33676;51.006;17.180;2023-01-23T08:13:40;102194.48;;;3.05;100.00
47913;BME280;33676;51.006;17.180;2023-01-23T08:16:10;102197.38;;;3.07;100.00
47913;BME280;33676;51.006;17.180;2023-01-23T08:18:42;102202.18;;;3.09;100.00
47913;BME280;33676;51.006;17.180;2023-01-23T08:21:10;102201.44;;;3.12;100.00
47913;BME280;33676;51.006;17.180;2023-01-23T08:23:40;102201.21;;;3.14;100.00
47913;BME280;33676;51.006;17.180;2023-01-23T08:26:16;102202.39;;;3.15;100.00
47913;BME280;33676;51.006;17.180;2023-01-23T08:28:46;102202.70;;;3.18;100.00
47913;BME280;33676;51.006;17.180;2023-01-23T08:31:19;102207.15;;;3.20;100.00
47913;BME280;33676;51.006;17.180;2023-01-23T08:33:51;102202.79;;;3.22;100.00
47913;BME280;33676;51.006;17.180;2023-01-23T08:36:20;102202.23;;;3.25;100.00
47913;BME280;33676;51.006;17.180;2023-01-23T08:38:48;102201.84;;;3.28;100.00
47913;BME280;33676;51.006;17.180;2023-01-23T08:41:17;102202.70;;;3.28;100.00
47913;BME280;33676;51.006;17.180;2023-01-23T08:43:48;102208.69;;;3.31;100.00
47913;BME280;33676;51.006;17.180;2023-01-23T08:46:19;102214.20;;;3.33;100.00
47913;BME280;33676;51.006;17.180;2023-01-23T08:48:48;102214.31;;;3.36;100.00
47913;BME280;33676;51.006;17.180;2023-01-23T08:51:19;102212.73;;;3.38;100.00
47913;BME280;33676;51.006;17.180;2023-01-23T08:53:51;102209.59;;;3.40;100.00
47913;BME280;33676;51.006;17.180;2023-01-23T08:56:23;102203.34;;;3.42;100.00
47913;BME280;33676;51.006;17.180;2023-01-23T08:58:52;102209.35;;;3.44;100.00
47913;BME280;33676;51.006;17.180;2023-01-23T09:01:23;102214.16;;;3.45;100.00
47913;BME280;33676;51.006;17.180;2023-01-23T09:03:52;102213.58;;;3.49;100.00
47913;BME280;33676;51.006;17.180;2023-01-23T09:06:22;102215.93;;;3.53;100.00
47913;BME280;33676;51.006;17.180;2023-01-23T09:08:50;102215.70;;;3.57;100.00
47913;BME280;33676;51.006;17.180;2023-01-23T09:11:19;102218.05;;;3.60;100.00
47913;BME280;33676;51.006;17.180;2023-01-23T09:13:48;102211.90;;;3.65;100.00
47913;BME280;33676;51.006;17.180;2023-01-23T09:16:22;102215.09;;;3.70;100.00
47913;BME280;33676;51.006;17.180;2023-01-23T09:18:50;102217.79;;;3.74;100.00
47913;BME280;33676;51.006;17.180;2023-01-23T09:21:21;102215.83;;;3.77;100.00
47913;BME280;33676;51.006;17.180;2023-01-23T09:23:50;102217.69;;;3.79;100.00
47913;BME280;33676;51.006;17.180;2023-01-23T09:26:20;102218.35;;;3.80;100.00
47913;BME280;33676;51.006;17.180;2023-01-23T09:28:50;102225.23;;;3.82;100.00
47913;BME280;33676;51.006;17.180;2023-01-23T09:31:18;102227.96;;;3.84;100.00
47913;BME280;33676;51.006;17.180;2023-01-23T09:33:47;102228.96;;;3.86;100.00
47913;BME280;33676;51.006;17.180;2023-01-23T09:36:16;102229.10;;;3.88;100.00
47913;BME280;33676;51.006;17.180;2023-01-23T09:38:47;102229.09;;;3.88;100.00
47913;BME280;33676;51.006;17.180;2023-01-23T09:41:24;102229.80;;;3.88;100.00
47913;BME280;33676;51.006;17.180;2023-01-23T09:44:35;102226.70;;;3.88;100.00
47913;BME280;33676;51.006;17.180;2023-01-23T09:47:27;102225.50;;;3.87;100.00
47913;BME280;33676;51.006;17.180;2023-01-23T09:50:08;102224.65;;;3.86;100.00
47913;BME280;33676;51.006;17.180;2023-01-23T09:52:48;102222.23;;;3.86;100.00
47913;BME280;33676;51.006;17.180;2023-01-23T09:55:52;102220.66;;;3.86;100.00
47913;BME280;33676;51.006;17.180;2023-01-23T09:58:42;102223.27;;;3.85;100.00
47913;BME280;33676;51.006;17.180;2023-01-23T10:01:13;102225.89;;;3.84;100.00
47913;BME280;33676;51.006;17.180;2023-01-23T10:03:41;102223.64;;;3.84;100.00
47913;BME280;33676;51.006;17.180;2023-01-23T10:06:23;102224.30;;;3.86;100.00
47913;BME280;33676;51.006;17.180;2023-01-23T10:12:31;102232.56;;;3.88;100.00
47913;BME280;33676;51.006;17.180;2023-01-23T10:15:18;102227.70;;;3.89;100.00
47913;BME280;33676;51.006;17.180;2023-01-23T10:27:20;102212.87;;;3.96;100.00
47913;BME280;33676;51.006;17.180;2023-01-23T10:30:02;102213.20;;;3.97;100.00
47913;BME280;33676;51.006;17.180;2023-01-23T10:32:49;102207.27;;;3.99;100.00
47913;BME280;33676;51.006;17.180;2023-01-23T10:35:28;102209.02;;;3.98;100.00
47913;BME280;33676;51.006;17.180;2023-01-23T10:38:59;102210.40;;;3.98;100.00
47913;BME280;33676;51.006;17.180;2023-01-23T10:41:31;102206.44;;;3.97;100.00
47913;BME280;33676;51.006;17.180;2023-01-23T10:44:00;102209.22;;;3.97;100.00
47913;BME280;33676;51.006;17.180;2023-01-23T10:46:51;102203.98;;;3.99;100.00
47913;BME280;33676;51.006;17.180;2023-01-23T10:49:35;102203.07;;;4.02;100.00
47913;BME280;33676;51.006;17.180;2023-01-23T10:52:39;102204.98;;;4.02;100.00
47913;BME280;33676;51.006;17.180;2023-01-23T10:55:43;102202.91;;;4.01;100.00
47913;BME280;33676;51.006;17.180;2023-01-23T10:58:36;102204.29;;;4.02;100.00
47913;BME280;33676;51.006;17.180;2023-01-23T11:01:24;102201.35;;;4.01;100.00
47913;BME280;33676;51.006;17.180;2023-01-23T11:03:54;102204.11;;;4.02;100.00
47913;BME280;33676;51.006;17.180;2023-01-23T11:06:23;102204.62;;;4.03;100.00
47913;BME280;33676;51.006;17.180;2023-01-23T11:09:07;102204.77;;;4.04;100.00
47913;BME280;33676;51.006;17.180;2023-01-23T11:12:02;102199.73;;;4.04;100.00
47913;BME280;33676;51.006;17.180;2023-01-23T11:14:32;102197.29;;;4.06;100.00
47913;BME280;33676;51.006;17.180;2023-01-23T11:17:23;102191.91;;;4.06;100.00
47913;BME280;33676;51.006;17.180;2023-01-23T11:20:09;102188.06;;;4.08;100.00
47913;BME280;33676;51.006;17.180;2023-01-23T11:22:39;102177.30;;;4.10;100.00
47913;BME280;33676;51.006;17.180;2023-01-23T11:25:41;102179.52;;;4.11;100.00
47913;BME280;33676;51.006;17.180;2023-01-23T11:28:30;102174.16;;;4.11;100.00
47913;BME280;33676;51.006;17.180;2023-01-23T11:31:18;102174.31;;;4.12;100.00
47913;BME280;33676;51.006;17.180;2023-01-23T11:34:10;102171.92;;;4.11;100.00
47913;BME280;33676;51.006;17.180;2023-01-23T11:36:52;102167.45;;;4.09;100.00
47913;BME280;33676;51.006;17.180;2023-01-23T11:39:39;102163.29;;;4.10;100.00
47913;BME280;33676;51.006;17.180;2023-01-23T11:42:11;102167.28;;;4.09;100.00
47913;BME280;33676;51.006;17.180;2023-01-23T11:44:40;102172.98;;;4.09;100.00
47913;BME280;33676;51.006;17.180;2023-01-23T11:53:57;102175.13;;;4.06;100.00
47913;BME280;33676;51.006;17.180;2023-01-23T11:56:55;102171.54;;;4.04;100.00
47913;BME280;33676;51.006;17.180;2023-01-23T12:02:57;102174.52;;;4.02;100.00
47913;BME280;33676;51.006;17.180;2023-01-23T12:09:14;102173.90;;;3.98;100.00
47913;BME280;33676;51.006;17.180;2023-01-23T12:17:30;102168.04;;;3.97;100.00
47913;BME280;33676;51.006;17.180;2023-01-23T12:20:50;102166.14;;;3.96;100.00
47913;BME280;33676;51.006;17.180;2023-01-23T12:24:05;102163.58;;;3.95;100.00
47913;BME280;33676;51.006;17.180;2023-01-23T12:26:59;102163.77;;;3.95;100.00
47913;BME280;33676;51.006;17.180;2023-01-23T12:33:01;102158.57;;;3.94;100.00
47913;BME280;33676;51.006;17.180;2023-01-23T12:38:38;102159.14;;;4.01;100.00
47913;BME280;33676;51.006;17.180;2023-01-23T12:41:30;102161.50;;;4.04;100.00
47913;BME280;33676;51.006;17.180;2023-01-23T12:44:23;102157.27;;;4.08;100.00
47913;BME280;33676;51.006;17.180;2023-01-23T12:47:15;102150.48;;;4.10;100.00
47913;BME280;33676;51.006;17.180;2023-01-23T12:50:02;102156.16;;;4.12;100.00
47913;BME280;33676;51.006;17.180;2023-01-23T12:52:40;102157.83;;;4.14;100.00
47913;BME280;33676;51.006;17.180;2023-01-23T12:55:23;102158.15;;;4.15;100.00
47913;BME280;33676;51.006;17.180;2023-01-23T12:57:56;102159.62;;;4.18;100.00
47913;BME280;33676;51.006;17.180;2023-01-23T13:08:11;102164.52;;;4.17;100.00
47913;BME280;33676;51.006;17.180;2023-01-23T13:11:41;102170.11;;;4.14;100.00
47913;BME280;33676;51.006;17.180;2023-01-23T13:14:35;102167.21;;;4.12;100.00
47913;BME280;33676;51.006;17.180;2023-01-23T13:17:50;102168.10;;;4.11;100.00
47913;BME280;33676;51.006;17.180;2023-01-23T13:20:56;102171.04;;;4.11;100.00
47913;BME280;33676;51.006;17.180;2023-01-23T13:23:44;102176.25;;;4.11;100.00
47913;BME280;33676;51.006;17.180;2023-01-23T13:28:51;102172.84;;;4.08;100.00
47913;BME280;33676;51.006;17.180;2023-01-23T13:31:34;102172.50;;;4.07;100.00
47913;BME280;33676;51.006;17.180;2023-01-23T13:37:46;102173.08;;;4.04;100.00
47913;BME280;33676;51.006;17.180;2023-01-23T13:40:22;102180.72;;;4.03;100.00
47913;BME280;33676;51.006;17.180;2023-01-23T13:42:51;102182.46;;;4.03;100.00
47913;BME280;33676;51.006;17.180;2023-01-23T13:45:26;102179.02;;;4.01;100.00
47913;BME280;33676;51.006;17.180;2023-01-23T13:48:36;102187.52;;;4.01;100.00
47913;BME280;33676;51.006;17.180;2023-01-23T13:51:42;102188.06;;;3.99;100.00
47913;BME280;33676;51.006;17.180;2023-01-23T13:54:30;102189.98;;;3.98;100.00
47913;BME280;33676;51.006;17.180;2023-01-23T13:57:31;102188.61;;;3.98;100.00
47913;BME280;33676;51.006;17.180;2023-01-23T14:00:20;102185.70;;;3.96;100.00
47913;BME280;33676;51.006;17.180;2023-01-23T14:03:31;102183.30;;;3.95;100.00
47913;BME280;33676;51.006;17.180;2023-01-23T14:06:37;102187.83;;;3.94;100.00
47913;BME280;33676;51.006;17.180;2023-01-23T14:09:31;102189.77;;;3.92;100.00
47913;BME280;33676;51.006;17.180;2023-01-23T14:12:12;102190.30;;;3.91;100.00
47913;BME280;33676;51.006;17.180;2023-01-23T14:14:56;102188.23;;;3.91;100.00
47913;BME280;33676;51.006;17.180;2023-01-23T14:17:41;102192.40;;;3.90;100.00